Pagrindinis puslapis
METAR-TAF:

METAR-TAF

Oro uostai :

Dalhart Municipal Airport

Dalhart, Teksasas, Jungtinės Amerikos Valstijos

platuma: 36-01-24N, ilguma: 102-32-50W, Aukštis: 1216 m

Dabartinis oras

Ataskaita buvo paskelbta 18 minutes, ne 09:53 UTC
Vėjas 7 kt iš Pietryčių
Temperatūra 17°C
Drėgmė 82%
Slėgis 1017 hPa
Matomumas: 16.1 km
Giedras dangus

METAR: KDHT 050953Z AUTO 13007KT 10SM CLR 17/14 A3002 RMK AO2 SLP101 T01720144

Laikas: 05:11 (10:11 UTC)

Prognozė

Ataskaita buvo paskelbta 4 valandos ir 51 minutes, ne 05:20 UTC
Prognozė galioja nuo 05 metu 06 UTC su 06 metu 06 UTC
Vėjas 9 kt iš Pietryčių
Matomumas: 10 km
Mažai debesys ne aukštis 25000 ft
Nuo 06 metu 0200 UTC
Vėjas 13 kt iš Pietų/Pietryčių su gūsio iki 22 kt
Matomumas: 10 km
Su prošvaistėmis ne aukštis 25000 ft

TAF: KDHT 050520Z 0506/0606 13009KT P6SM FEW250 FM060200 15013G22KT P6SM BKN250

Orai ataskaitas ir orų prognozės (METAR, TAF).

turimą stotys yra geltonos ir raudonos taškus žemėlapyje.

Perkelti pele per norėdami pamatyti stoties vardą.

Tada spustelėkite, norėdami matyti oro stebėjimo ir prognozės.

Norėdami pakeisti žemėlapį: spustelėkite ant žalios mygtukų su juodo kryžiaus žemyn,; žalią mygtuką su brūkšneliu, jei norite nutolinti; arba žalių rodyklių gretimoms žemėlapius.


METAR-TAF: